createdAt,value
2018-03-31T00:00:51.318Z,97.60
2018-03-31T00:02:53.414Z,97.60
2018-03-31T00:04:56.271Z,98.10
2018-03-31T00:06:58.341Z,98.10
2018-03-31T00:09:00.398Z,98.80
2018-03-31T00:11:02.503Z,97.60
2018-03-31T00:13:04.572Z,98.30
2018-03-31T00:15:07.428Z,98.70
2018-03-31T00:17:10.284Z,98.80
2018-03-31T00:19:12.365Z,98.70
2018-03-31T00:21:15.208Z,99.00
2018-03-31T00:23:17.276Z,99.00
2018-03-31T00:25:19.401Z,98.70
2018-03-31T00:27:21.450Z,98.60
2018-03-31T00:29:23.521Z,98.40
2018-03-31T00:31:25.606Z,98.40
2018-03-31T00:33:27.698Z,98.60
2018-03-31T00:35:29.842Z,98.60
2018-03-31T00:37:31.954Z,98.90
2018-03-31T00:39:34.019Z,99.20
2018-03-31T00:41:36.144Z,99.00
2018-03-31T00:43:38.197Z,99.00
2018-03-31T00:45:40.251Z,99.40
2018-03-31T00:47:42.330Z,99.70
2018-03-31T00:49:44.391Z,99.80
2018-03-31T00:51:46.574Z,99.40
2018-03-31T00:53:49.397Z,97.90
2018-03-31T00:55:51.497Z,97.70
2018-03-31T00:57:53.913Z,98.00
2018-03-31T00:59:55.969Z,97.70
2018-03-31T01:01:58.037Z,97.80
2018-03-31T01:04:00.096Z,97.90
2018-03-31T01:06:02.176Z,98.40
2018-03-31T01:08:04.250Z,98.60
2018-03-31T01:10:06.308Z,98.70
2018-03-31T01:12:08.394Z,98.50
2018-03-31T01:14:10.470Z,98.10
2018-03-31T01:16:12.537Z,98.10
2018-03-31T01:18:14.614Z,98.60
2018-03-31T01:20:17.445Z,98.00
2018-03-31T01:22:19.512Z,98.00
2018-03-31T01:24:21.590Z,98.60
2018-03-31T01:26:24.410Z,98.60
2018-03-31T01:28:26.473Z,98.60
2018-03-31T01:30:28.547Z,98.80
2018-03-31T01:32:30.674Z,98.80
2018-03-31T01:34:33.538Z,98.40
2018-03-31T01:36:35.669Z,98.40
2018-03-31T01:38:37.724Z,98.10
2018-03-31T01:40:39.802Z,98.20
2018-03-31T01:42:41.857Z,98.40
2018-03-31T01:44:44.017Z,98.70
2018-03-31T01:46:46.070Z,98.80
2018-03-31T01:48:48.113Z,98.20
2018-03-31T01:50:50.208Z,98.50
2018-03-31T01:52:52.272Z,98.10
2018-03-31T01:54:55.091Z,97.60
2018-03-31T01:56:57.932Z,97.50
2018-03-31T01:59:00.759Z,98.00
2018-03-31T02:01:02.841Z,98.30
2018-03-31T02:03:04.906Z,98.00
2018-03-31T02:05:06.964Z,97.60
2018-03-31T02:07:09.040Z,98.00
2018-03-31T02:09:11.095Z,98.40
2018-03-31T02:11:13.181Z,98.30
2018-03-31T02:13:15.265Z,98.10
2018-03-31T02:15:17.334Z,97.50
2018-03-31T02:17:19.505Z,98.60
2018-03-31T02:19:22.353Z,98.50
2018-03-31T02:21:25.192Z,98.60
2018-03-31T02:23:27.316Z,98.50
2018-03-31T02:25:29.381Z,97.80
2018-03-31T02:27:31.461Z,98.70
2018-03-31T02:29:34.274Z,98.20
2018-03-31T02:31:36.326Z,98.20
2018-03-31T02:33:38.403Z,98.20
2018-03-31T02:35:40.678Z,98.00
2018-03-31T02:37:42.749Z,98.30
2018-03-31T02:39:47.226Z,98.30
2018-03-31T02:41:49.505Z,98.30
2018-03-31T02:43:52.793Z,98.20
2018-03-31T02:45:55.082Z,98.50
2018-03-31T02:47:57.918Z,98.80
2018-03-31T02:50:01.389Z,98.50
2018-03-31T02:52:05.612Z,98.40
2018-03-31T02:54:08.449Z,98.80
2018-03-31T02:56:10.527Z,98.80
2018-03-31T02:58:13.351Z,99.00
2018-03-31T03:00:17.678Z,98.80
2018-03-31T03:02:19.734Z,98.80
2018-03-31T03:04:22.322Z,99.00
2018-03-31T03:06:24.844Z,98.60
2018-03-31T03:08:27.243Z,98.50
2018-03-31T03:10:30.085Z,98.50
2018-03-31T03:12:33.078Z,98.50
2018-03-31T03:14:35.963Z,98.20
2018-03-31T03:16:38.997Z,98.60
2018-03-31T03:18:41.621Z,98.00
2018-03-31T03:20:46.790Z,98.80
2018-03-31T03:22:49.072Z,98.70
2018-03-31T03:24:51.738Z,98.60
2018-03-31T03:26:53.830Z,98.60
2018-03-31T03:28:57.086Z,98.80
2018-03-31T03:30:59.198Z,98.70
2018-03-31T03:33:07.460Z,98.90
2018-03-31T03:35:10.046Z,99.00
2018-03-31T03:37:12.412Z,99.10
2018-03-31T03:39:14.489Z,98.90
2018-03-31T03:41:17.057Z,98.60
2018-03-31T03:43:20.316Z,98.80
2018-03-31T03:45:22.395Z,99.10
2018-03-31T03:47:24.768Z,99.10
2018-03-31T03:49:26.855Z,99.00
2018-03-31T03:51:28.917Z,98.80
2018-03-31T03:53:31.028Z,98.90
2018-03-31T03:55:33.914Z,99.20
2018-03-31T03:57:36.736Z,99.20
2018-03-31T03:59:38.803Z,99.20
2018-03-31T04:01:40.868Z,98.90
2018-03-31T04:03:42.956Z,98.50
2018-03-31T04:05:45.034Z,98.80
2018-03-31T04:07:47.890Z,98.70
2018-03-31T04:09:53.046Z,98.70
2018-03-31T04:11:55.943Z,99.10
2018-03-31T04:13:58.781Z,99.00
2018-03-31T04:18:09.201Z,98.90
2018-03-31T04:20:11.326Z,98.70
2018-03-31T04:22:14.149Z,99.00
2018-03-31T04:24:16.204Z,99.00
2018-03-31T04:26:18.278Z,99.00
2018-03-31T04:28:20.334Z,99.00
2018-03-31T04:30:23.185Z,98.30
2018-03-31T04:32:26.086Z,97.90
2018-03-31T04:34:28.147Z,97.90
2018-03-31T04:36:30.242Z,98.70
2018-03-31T04:38:32.300Z,98.40
2018-03-31T04:40:34.424Z,98.40
2018-03-31T04:42:37.364Z,98.70
2018-03-31T04:44:39.434Z,98.70
2018-03-31T04:46:42.055Z,98.40
2018-03-31T04:48:44.121Z,98.40
2018-03-31T04:50:47.321Z,97.80
2018-03-31T04:52:49.429Z,97.40
2018-03-31T04:54:53.219Z,98.30
2018-03-31T04:56:55.290Z,98.60
2018-03-31T04:58:57.374Z,98.00
2018-03-31T05:01:00.209Z,98.00
2018-03-31T05:03:02.293Z,98.00
2018-03-31T05:05:04.462Z,98.10
2018-03-31T05:07:06.520Z,98.20
2018-03-31T05:09:08.603Z,97.80
2018-03-31T05:11:11.439Z,97.90
2018-03-31T05:13:13.509Z,97.90
2018-03-31T05:15:15.565Z,98.20
2018-03-31T05:17:17.641Z,97.60
2018-03-31T05:19:19.715Z,98.10
2018-03-31T05:21:21.787Z,98.00
2018-03-31T05:23:23.969Z,98.40
2018-03-31T05:25:26.048Z,98.00
2018-03-31T05:27:28.098Z,97.40
2018-03-31T05:29:30.949Z,97.30
2018-03-31T05:31:33.772Z,97.80
2018-03-31T05:33:35.830Z,97.80
2018-03-31T05:35:38.140Z,97.40
2018-03-31T05:37:40.243Z,97.60
2018-03-31T05:39:42.334Z,97.90
2018-03-31T05:41:44.393Z,98.30
2018-03-31T05:43:46.763Z,97.50
2018-03-31T05:45:48.863Z,98.20
2018-03-31T05:47:50.972Z,97.80
2018-03-31T05:49:53.031Z,97.90
2018-03-31T05:51:55.129Z,98.00
2018-03-31T05:53:57.196Z,97.70
2018-03-31T05:55:59.280Z,97.70
2018-03-31T05:58:01.387Z,97.50
2018-03-31T06:00:03.465Z,97.60
2018-03-31T06:02:05.542Z,98.40
2018-03-31T06:04:07.617Z,98.20
2018-03-31T06:06:09.779Z,98.60
2018-03-31T06:08:11.862Z,98.70
2018-03-31T06:10:14.697Z,99.10
2018-03-31T06:12:17.291Z,99.10
2018-03-31T06:14:19.366Z,99.20
2018-03-31T06:16:21.453Z,99.20
2018-03-31T06:18:24.278Z,99.20
2018-03-31T06:20:27.096Z,98.90
2018-03-31T06:22:29.956Z,99.30
2018-03-31T06:24:32.053Z,99.30
2018-03-31T06:26:34.895Z,98.90
2018-03-31T06:28:36.956Z,98.90
2018-03-31T06:30:39.148Z,99.10
2018-03-31T06:32:41.214Z,98.60
2018-03-31T06:34:44.071Z,98.90
2018-03-31T06:36:46.177Z,98.90
2018-03-31T06:38:48.252Z,98.70
2018-03-31T06:40:50.323Z,98.80
2018-03-31T06:42:52.397Z,98.80
2018-03-31T06:44:54.460Z,98.80
2018-03-31T06:46:56.549Z,98.80
2018-03-31T06:48:58.678Z,98.60
2018-03-31T06:51:00.739Z,98.70
2018-03-31T06:53:02.811Z,98.30
2018-03-31T06:55:04.898Z,98.70
2018-03-31T06:57:06.998Z,98.60
2018-03-31T06:59:09.056Z,98.60
2018-03-31T07:01:11.109Z,98.30
2018-03-31T07:03:13.239Z,98.60
2018-03-31T07:05:15.305Z,98.70
2018-03-31T07:07:17.365Z,98.60
2018-03-31T07:09:20.227Z,98.80
2018-03-31T07:11:23.057Z,99.00
2018-03-31T07:13:25.886Z,99.00
2018-03-31T07:15:27.956Z,99.00
2018-03-31T07:17:30.023Z,98.20
2018-03-31T07:19:32.120Z,98.40
2018-03-31T07:21:34.942Z,98.30
2018-03-31T07:23:37.013Z,98.30
2018-03-31T07:25:39.874Z,97.50
2018-03-31T07:27:41.934Z,97.50
2018-03-31T07:29:43.986Z,96.30
2018-03-31T07:31:46.066Z,96.20
2018-03-31T07:33:48.153Z,96.00
2018-03-31T07:35:50.214Z,95.50
2018-03-31T07:37:52.273Z,96.50
2018-03-31T07:39:54.347Z,95.50
2018-03-31T07:41:57.194Z,95.80
2018-03-31T07:43:59.274Z,95.80
2018-03-31T07:46:01.356Z,95.60
2018-03-31T07:48:03.415Z,95.70
2018-03-31T07:50:05.504Z,95.60
2018-03-31T07:52:08.334Z,95.60
2018-03-31T07:54:10.404Z,95.60
2018-03-31T07:56:12.534Z,95.20
2018-03-31T07:58:14.602Z,94.20
2018-03-31T08:00:16.657Z,93.70
2018-03-31T08:02:18.950Z,94.40
2018-03-31T08:04:21.801Z,95.40
2018-03-31T08:06:23.870Z,95.40
2018-03-31T08:08:25.978Z,93.90
2018-03-31T08:10:28.045Z,92.70
2018-03-31T08:12:30.130Z,93.00
2018-03-31T08:14:32.205Z,93.40
2018-03-31T08:16:35.049Z,93.40
2018-03-31T08:18:37.130Z,93.40
2018-03-31T08:20:39.258Z,92.70
2018-03-31T08:22:41.324Z,92.10
2018-03-31T08:24:44.464Z,92.30
2018-03-31T08:26:46.542Z,91.20
2018-03-31T08:28:48.654Z,90.20
2018-03-31T08:30:51.523Z,92.00
2018-03-31T08:32:53.593Z,92.00
2018-03-31T08:34:56.426Z,92.00
2018-03-31T08:36:58.613Z,91.90
2018-03-31T08:39:00.727Z,92.00
2018-03-31T08:41:02.825Z,91.90
2018-03-31T08:43:04.921Z,91.50
2018-03-31T08:45:06.980Z,91.60
2018-03-31T08:47:09.872Z,92.00
2018-03-31T08:49:12.066Z,92.00
2018-03-31T08:51:14.147Z,92.10
2018-03-31T08:53:16.231Z,92.10
2018-03-31T08:55:18.326Z,92.30
2018-03-31T08:57:21.169Z,91.20
2018-03-31T08:59:23.280Z,91.20
2018-03-31T09:01:25.462Z,90.70
2018-03-31T09:03:27.546Z,90.80
2018-03-31T09:05:29.613Z,90.90
2018-03-31T09:07:31.738Z,90.70
2018-03-31T09:09:33.810Z,90.20
2018-03-31T09:11:35.895Z,90.40
2018-03-31T09:13:37.969Z,90.10
2018-03-31T09:15:40.146Z,89.50
2018-03-31T09:17:43.034Z,90.10
2018-03-31T09:19:45.106Z,90.10
2018-03-31T09:21:47.931Z,90.00
2018-03-31T09:23:50.036Z,89.90
2018-03-31T09:25:52.125Z,90.20
2018-03-31T09:27:54.186Z,88.10
2018-03-31T09:29:56.282Z,88.80
2018-03-31T09:31:58.340Z,88.80
2018-03-31T09:34:00.408Z,89.20
2018-03-31T09:36:02.511Z,90.30
2018-03-31T09:38:04.574Z,88.30
2018-03-31T09:40:06.709Z,90.50
2018-03-31T09:42:08.791Z,88.70
2018-03-31T09:44:10.846Z,88.70
2018-03-31T09:46:12.949Z,89.70
2018-03-31T09:48:15.014Z,88.30
2018-03-31T09:50:17.833Z,87.70
2018-03-31T09:52:19.918Z,87.80
2018-03-31T09:54:21.988Z,87.90
2018-03-31T09:56:24.078Z,88.50
2018-03-31T09:58:26.146Z,87.70
2018-03-31T10:00:33.933Z,87.10
2018-03-31T10:02:35.997Z,87.90
2018-03-31T10:04:38.062Z,87.30
2018-03-31T10:06:40.190Z,87.10
2018-03-31T10:08:42.270Z,86.10
2018-03-31T10:10:45.211Z,85.20
2018-03-31T10:12:47.289Z,85.10
2018-03-31T10:14:49.348Z,83.40
2018-03-31T10:16:51.413Z,83.00
2018-03-31T10:18:53.485Z,83.20
2018-03-31T10:20:55.549Z,85.00
2018-03-31T10:22:57.645Z,86.50
2018-03-31T10:24:59.744Z,85.90
2018-03-31T10:27:01.818Z,86.90
2018-03-31T10:29:04.657Z,86.10
2018-03-31T10:31:06.746Z,86.10
2018-03-31T10:33:08.813Z,85.40
2018-03-31T10:35:10.995Z,85.30
2018-03-31T10:37:13.321Z,84.60
2018-03-31T10:39:15.458Z,82.80
2018-03-31T10:41:17.530Z,85.30
2018-03-31T10:43:19.585Z,85.10
2018-03-31T10:45:21.687Z,81.20
2018-03-31T10:47:23.765Z,83.90
2018-03-31T10:49:25.872Z,84.00
2018-03-31T10:51:27.994Z,84.20
2018-03-31T10:53:30.106Z,80.10
2018-03-31T10:55:32.190Z,76.50
2018-03-31T10:57:34.288Z,76.30
2018-03-31T10:59:37.133Z,77.10
2018-03-31T11:01:39.969Z,75.60
2018-03-31T11:03:42.821Z,78.10
2018-03-31T11:05:44.899Z,78.10
2018-03-31T11:07:47.753Z,79.50
2018-03-31T11:09:49.818Z,79.40
2018-03-31T11:11:51.892Z,80.00
2018-03-31T11:13:53.949Z,79.80
2018-03-31T11:15:56.054Z,79.40
2018-03-31T11:17:58.116Z,79.10
2018-03-31T11:20:00.182Z,80.00
2018-03-31T11:22:02.275Z,78.30
2018-03-31T11:24:04.351Z,78.20
2018-03-31T11:26:06.410Z,78.50
2018-03-31T11:28:09.274Z,78.10
2018-03-31T11:30:11.381Z,78.30
2018-03-31T11:32:14.234Z,78.40
2018-03-31T11:34:16.348Z,78.30
2018-03-31T11:36:18.430Z,78.60
2018-03-31T11:38:20.499Z,79.20
2018-03-31T11:40:22.662Z,79.70
2018-03-31T11:42:24.857Z,78.60
2018-03-31T11:44:26.894Z,78.90
2018-03-31T11:46:28.969Z,77.40
2018-03-31T11:48:31.794Z,78.50
2018-03-31T11:50:34.641Z,78.60
2018-03-31T11:52:36.705Z,78.60
2018-03-31T11:54:38.832Z,80.20
2018-03-31T11:56:40.906Z,78.70
2018-03-31T11:58:43.069Z,79.60
2018-03-31T12:00:45.161Z,79.70
2018-03-31T12:02:47.224Z,79.20
2018-03-31T12:04:49.305Z,79.70
2018-03-31T12:06:52.154Z,80.60
2018-03-31T12:08:54.239Z,80.60
2018-03-31T12:10:57.082Z,78.70
2018-03-31T12:12:59.146Z,78.70
2018-03-31T12:15:01.214Z,79.10
2018-03-31T12:17:03.310Z,77.50
2018-03-31T12:19:06.145Z,74.60
2018-03-31T12:21:08.219Z,74.70
2018-03-31T12:23:10.318Z,74.40
2018-03-31T12:25:13.153Z,72.40
2018-03-31T12:27:15.346Z,72.30
2018-03-31T12:29:18.213Z,72.20
2018-03-31T12:31:20.284Z,72.00
2018-03-31T12:33:22.375Z,72.30
2018-03-31T12:35:24.444Z,72.80
2018-03-31T12:37:26.554Z,67.20
2018-03-31T12:39:28.630Z,67.30
2018-03-31T12:41:30.747Z,69.90
2018-03-31T12:43:32.873Z,70.80
2018-03-31T12:45:35.707Z,67.70
2018-03-31T12:47:37.771Z,67.70
2018-03-31T12:49:40.645Z,68.30
2018-03-31T12:51:42.703Z,68.20
2018-03-31T12:53:44.784Z,67.30
2018-03-31T12:55:46.869Z,68.40
2018-03-31T12:57:48.941Z,68.20
2018-03-31T12:59:51.779Z,67.50
2018-03-31T13:01:53.836Z,67.50
2018-03-31T13:03:55.997Z,64.40
2018-03-31T13:05:58.069Z,63.50
2018-03-31T13:08:00.145Z,63.60
2018-03-31T13:10:02.272Z,62.40
2018-03-31T13:12:04.334Z,57.70
2018-03-31T13:14:06.420Z,57.30
2018-03-31T13:16:08.505Z,57.60
2018-03-31T13:18:10.584Z,60.10
2018-03-31T13:20:13.449Z,62.10
2018-03-31T13:22:16.276Z,63.70
2018-03-31T13:24:18.380Z,63.60
2018-03-31T13:26:20.462Z,62.60
2018-03-31T13:28:23.288Z,62.50
2018-03-31T13:30:25.371Z,62.30
2018-03-31T13:32:27.433Z,64.50
2018-03-31T13:34:29.507Z,60.20
2018-03-31T13:36:31.593Z,57.10
2018-03-31T13:38:34.461Z,58.20
2018-03-31T13:40:36.574Z,58.10
2018-03-31T13:42:38.642Z,59.00
2018-03-31T13:44:40.732Z,60.00
2018-03-31T13:46:42.925Z,61.50
2018-03-31T13:48:45.823Z,60.20
2018-03-31T13:50:47.926Z,60.20
2018-03-31T13:52:50.022Z,62.20
2018-03-31T13:54:52.090Z,60.70
2018-03-31T13:56:54.939Z,60.40
2018-03-31T13:58:57.028Z,60.40
2018-03-31T14:00:59.863Z,60.90
2018-03-31T14:03:02.139Z,60.90
2018-03-31T14:05:04.256Z,60.70
2018-03-31T14:07:06.317Z,59.60
2018-03-31T14:09:08.407Z,59.80
2018-03-31T14:11:10.441Z,58.00
2018-03-31T14:13:13.309Z,56.50
2018-03-31T14:15:16.155Z,55.40
2018-03-31T14:17:18.392Z,55.40
2018-03-31T14:19:20.465Z,56.30
2018-03-31T14:21:22.546Z,55.70
2018-03-31T14:23:24.614Z,54.80
2018-03-31T14:25:26.714Z,55.70
2018-03-31T14:27:29.556Z,56.00
2018-03-31T14:29:33.148Z,56.90
2018-03-31T14:31:35.230Z,56.90
2018-03-31T14:33:37.309Z,58.30
2018-03-31T14:35:40.165Z,57.40
2018-03-31T14:37:43.031Z,57.70
2018-03-31T14:39:45.121Z,57.60
2018-03-31T14:41:47.976Z,56.60
2018-03-31T14:43:50.073Z,56.60
2018-03-31T14:45:52.925Z,51.30
2018-03-31T14:47:55.021Z,51.30
2018-03-31T14:49:57.862Z,53.00
2018-03-31T14:51:59.977Z,53.00
2018-03-31T14:54:02.041Z,54.90
2018-03-31T14:56:04.115Z,53.90
2018-03-31T14:58:06.204Z,55.30
2018-03-31T15:00:08.342Z,56.40
2018-03-31T15:02:10.415Z,56.70
2018-03-31T15:04:12.478Z,57.30
2018-03-31T15:06:14.561Z,59.40
2018-03-31T15:08:16.630Z,58.60
2018-03-31T15:10:18.675Z,57.90
2018-03-31T15:12:20.778Z,58.20
2018-03-31T15:14:23.618Z,58.40
2018-03-31T15:16:26.474Z,59.00
2018-03-31T15:18:28.566Z,59.00
2018-03-31T15:20:30.642Z,59.00
2018-03-31T15:22:32.769Z,59.50
2018-03-31T15:24:35.561Z,58.60
2018-03-31T15:26:38.388Z,58.00
2018-03-31T15:28:41.250Z,56.20
2018-03-31T15:30:44.118Z,54.90
2018-03-31T15:32:46.190Z,54.80
2018-03-31T15:34:48.330Z,51.80
2018-03-31T15:36:50.353Z,51.20
2018-03-31T15:38:52.469Z,50.60
2018-03-31T15:40:54.550Z,50.30
2018-03-31T15:42:57.387Z,52.30
2018-03-31T15:45:00.399Z,52.30
2018-03-31T15:47:02.489Z,52.20
2018-03-31T15:49:05.334Z,53.50
2018-03-31T15:51:07.433Z,53.50
2018-03-31T15:53:10.259Z,54.40
2018-03-31T15:55:12.360Z,54.40
2018-03-31T15:57:15.185Z,55.20
2018-03-31T15:59:17.251Z,55.10
2018-03-31T16:01:19.342Z,55.50
2018-03-31T16:03:21.398Z,56.70
2018-03-31T16:05:24.301Z,57.30
2018-03-31T16:07:27.141Z,58.80
2018-03-31T16:09:30.170Z,58.30
2018-03-31T16:11:33.052Z,58.10
2018-03-31T16:13:35.893Z,58.10
2018-03-31T16:15:37.970Z,58.00
2018-03-31T16:17:40.049Z,57.60
2018-03-31T16:19:42.895Z,59.60
2018-03-31T16:21:44.958Z,59.50
2018-03-31T16:23:47.131Z,59.50
2018-03-31T16:25:49.243Z,60.00
2018-03-31T16:27:51.336Z,59.70
2018-03-31T16:29:53.410Z,61.40
2018-03-31T16:31:55.513Z,60.80
2018-03-31T16:33:58.353Z,60.80
2018-03-31T16:36:00.422Z,60.80
2018-03-31T16:38:03.268Z,63.90
2018-03-31T16:40:06.110Z,64.40
2018-03-31T16:42:08.958Z,63.70
2018-03-31T16:44:11.022Z,63.70
2018-03-31T16:46:13.095Z,65.00
2018-03-31T16:48:15.197Z,64.50
2018-03-31T16:50:17.277Z,64.20
2018-03-31T16:52:19.345Z,64.70
2018-03-31T16:54:21.450Z,65.30
2018-03-31T16:56:24.296Z,63.90
2018-03-31T16:58:26.401Z,63.90
2018-03-31T17:00:29.250Z,65.60
2018-03-31T17:02:31.358Z,65.50
2018-03-31T17:04:34.471Z,64.60
2018-03-31T17:06:37.322Z,64.30
2018-03-31T17:08:40.154Z,64.20
2018-03-31T17:10:44.293Z,65.20
2018-03-31T17:12:46.359Z,65.10
2018-03-31T17:14:48.429Z,65.60
2018-03-31T17:16:51.280Z,65.80
2018-03-31T17:18:53.347Z,65.80
2018-03-31T17:20:55.443Z,64.90
2018-03-31T17:22:58.569Z,66.70
2018-03-31T17:25:01.360Z,65.70
2018-03-31T17:27:03.449Z,65.60
2018-03-31T17:29:05.527Z,65.10
2018-03-31T17:31:08.388Z,66.10
2018-03-31T17:33:10.445Z,66.10
2018-03-31T17:35:12.519Z,68.90
2018-03-31T17:37:14.606Z,67.30
2018-03-31T17:39:16.663Z,67.80
2018-03-31T17:41:18.718Z,66.90
2018-03-31T17:43:21.590Z,67.90
2018-03-31T17:45:24.429Z,69.00
2018-03-31T17:47:26.489Z,69.00
2018-03-31T17:49:28.569Z,71.10
2018-03-31T17:51:30.635Z,70.00
2018-03-31T17:53:32.719Z,69.00
2018-03-31T17:55:35.547Z,70.70
2018-03-31T17:57:37.730Z,70.60
2018-03-31T17:59:40.575Z,71.90
2018-03-31T18:01:42.661Z,71.90
2018-03-31T18:03:44.750Z,72.00
2018-03-31T18:05:46.816Z,71.90
2018-03-31T18:07:48.918Z,71.80
2018-03-31T18:09:51.049Z,72.40
2018-03-31T18:11:53.950Z,72.20
2018-03-31T18:13:56.810Z,72.30
2018-03-31T18:15:59.642Z,72.40
2018-03-31T18:18:01.732Z,72.40
2018-03-31T18:20:04.627Z,71.70
2018-03-31T18:22:06.725Z,71.70
2018-03-31T18:24:09.573Z,72.50
2018-03-31T18:26:11.732Z,72.50
2018-03-31T18:28:13.888Z,72.40
2018-03-31T18:30:15.973Z,72.70
2018-03-31T18:32:18.884Z,72.60
2018-03-31T18:34:20.967Z,72.50
2018-03-31T18:36:23.074Z,72.90
2018-03-31T18:38:25.933Z,74.20
2018-03-31T18:40:28.012Z,74.20
2018-03-31T18:42:30.129Z,75.20
2018-03-31T18:44:32.214Z,75.30
2018-03-31T18:46:34.309Z,74.60
2018-03-31T18:48:37.148Z,74.80
2018-03-31T18:50:39.239Z,74.80
2018-03-31T18:52:41.321Z,75.70
2018-03-31T18:54:44.173Z,75.40
2018-03-31T18:56:46.247Z,75.30
2018-03-31T18:58:48.330Z,75.30
2018-03-31T19:00:50.394Z,75.50
2018-03-31T19:02:52.611Z,76.40
2018-03-31T19:04:54.691Z,77.20
2018-03-31T19:06:56.763Z,77.20
2018-03-31T19:08:59.618Z,77.80
2018-03-31T19:11:01.701Z,77.70
2018-03-31T19:13:03.783Z,77.40
2018-03-31T19:15:06.651Z,77.80
2018-03-31T19:17:15.131Z,78.10
2018-03-31T19:19:17.294Z,78.10
2018-03-31T19:21:20.167Z,78.60
2018-03-31T19:23:22.228Z,78.70
2018-03-31T19:25:29.973Z,78.80
2018-03-31T19:27:32.835Z,80.50
2018-03-31T19:29:34.985Z,80.40
2018-03-31T19:31:37.070Z,80.80
2018-03-31T19:33:39.920Z,81.50
2018-03-31T19:35:47.570Z,81.40
2018-03-31T19:37:49.685Z,81.30
2018-03-31T19:39:51.828Z,81.40
2018-03-31T19:41:53.935Z,81.60
2018-03-31T19:43:56.795Z,81.80
2018-03-31T19:45:59.748Z,82.60
2018-03-31T19:48:01.984Z,82.60
2018-03-31T19:50:04.062Z,82.80
2018-03-31T19:52:06.157Z,83.30
2018-03-31T19:54:09.001Z,84.50
2018-03-31T19:56:11.259Z,84.50
2018-03-31T19:58:13.354Z,84.90
2018-03-31T20:00:15.459Z,85.00
2018-03-31T20:02:18.375Z,85.60
2018-03-31T20:04:20.502Z,85.60
2018-03-31T20:06:23.363Z,86.40
2018-03-31T20:08:25.526Z,86.40
2018-03-31T20:10:27.670Z,86.60
2018-03-31T20:12:29.936Z,86.50
2018-03-31T20:16:45.805Z,87.40
2018-03-31T20:18:48.048Z,87.10
2018-03-31T20:20:50.204Z,87.70
2018-03-31T20:22:53.282Z,87.70
2018-03-31T20:24:56.148Z,88.00
2018-03-31T20:26:58.252Z,87.60
2018-03-31T20:29:00.363Z,88.30
2018-03-31T20:31:02.448Z,88.20
2018-03-31T20:33:04.569Z,88.40
2018-03-31T20:35:06.648Z,89.00
2018-03-31T20:37:08.721Z,88.90
2018-03-31T20:39:10.823Z,88.80
2018-03-31T20:41:12.918Z,89.10
2018-03-31T20:43:15.001Z,89.00
2018-03-31T20:45:17.129Z,89.50
2018-03-31T20:47:19.203Z,89.80
2018-03-31T20:49:21.278Z,89.70
2018-03-31T20:51:23.385Z,90.20
2018-03-31T20:53:26.257Z,89.60
2018-03-31T20:55:29.129Z,90.00
2018-03-31T20:57:31.239Z,90.00
2018-03-31T20:59:33.343Z,89.90
2018-03-31T21:01:35.449Z,90.00
2018-03-31T21:03:37.532Z,89.50
2018-03-31T21:05:40.371Z,90.30
2018-03-31T21:07:43.253Z,90.10
2018-03-31T21:09:46.093Z,90.40
2018-03-31T21:11:48.210Z,90.30
2018-03-31T21:13:50.305Z,90.30
2018-03-31T21:15:52.405Z,90.30
2018-03-31T21:17:54.479Z,90.50
2018-03-31T21:19:57.319Z,90.50
2018-03-31T21:21:59.433Z,90.50
2018-03-31T21:24:02.335Z,90.60
2018-03-31T21:26:04.411Z,90.60
2018-03-31T21:28:06.511Z,90.60
2018-03-31T21:30:08.580Z,90.60
2018-03-31T21:32:11.442Z,90.90
2018-03-31T21:34:13.522Z,90.60
2018-03-31T21:36:16.367Z,90.60
2018-03-31T21:38:18.469Z,90.50
2018-03-31T21:40:20.557Z,90.40
2018-03-31T21:42:22.626Z,90.10
2018-03-31T21:44:24.719Z,90.50
2018-03-31T21:46:26.779Z,90.50
2018-03-31T21:48:28.961Z,90.60
2018-03-31T21:50:31.840Z,90.60
2018-03-31T21:52:33.896Z,90.60
2018-03-31T21:54:35.981Z,91.00
2018-03-31T21:56:38.872Z,91.00
2018-03-31T21:58:40.963Z,91.00
2018-03-31T22:00:43.084Z,90.90
2018-03-31T22:02:45.206Z,90.90
2018-03-31T22:04:47.307Z,91.10
2018-03-31T22:06:49.381Z,91.10
2018-03-31T22:08:52.235Z,91.10
2018-03-31T22:10:54.369Z,91.00
2018-03-31T22:13:02.185Z,91.10
2018-03-31T22:15:09.902Z,91.10
2018-03-31T22:17:11.971Z,91.20
2018-03-31T22:19:14.039Z,91.10
2018-03-31T22:21:16.897Z,91.20
2018-03-31T22:23:18.969Z,91.10
2018-03-31T22:25:21.079Z,91.00
2018-03-31T22:27:23.168Z,91.20
2018-03-31T22:29:25.239Z,90.90
2018-03-31T22:31:27.293Z,90.90
2018-03-31T22:33:29.384Z,91.00
2018-03-31T22:35:31.471Z,91.10
2018-03-31T22:37:34.373Z,91.10
2018-03-31T22:39:36.462Z,91.10
2018-03-31T22:41:38.549Z,91.10
2018-03-31T22:43:41.368Z,91.30
2018-03-31T22:45:43.430Z,91.20
2018-03-31T22:47:45.517Z,91.10
2018-03-31T22:49:47.609Z,91.20
2018-03-31T22:51:49.672Z,91.30
2018-03-31T22:53:51.753Z,91.10
2018-03-31T22:55:54.625Z,91.20
2018-03-31T22:57:57.066Z,91.20
2018-03-31T22:59:59.285Z,91.10
2018-03-31T23:02:01.350Z,91.10
2018-03-31T23:04:03.469Z,91.20
2018-03-31T23:06:06.310Z,91.30
2018-03-31T23:08:08.415Z,91.30
2018-03-31T23:10:11.294Z,91.40
2018-03-31T23:12:13.371Z,91.40
2018-03-31T23:14:16.239Z,91.60
2018-03-31T23:16:18.318Z,91.60
2018-03-31T23:18:21.155Z,91.80
2018-03-31T23:20:23.248Z,91.80
2018-03-31T23:22:25.334Z,91.60
2018-03-31T23:24:28.209Z,91.80
2018-03-31T23:26:31.106Z,91.70
2018-03-31T23:28:33.167Z,91.70
2018-03-31T23:30:35.260Z,91.50
2018-03-31T23:32:37.351Z,91.60
2018-03-31T23:34:39.414Z,91.40
2018-03-31T23:36:41.576Z,91.20
2018-03-31T23:38:43.650Z,90.70
2018-03-31T23:40:45.721Z,91.00
2018-03-31T23:42:48.570Z,91.00
2018-03-31T23:44:50.681Z,91.00
2018-03-31T23:46:52.970Z,91.20
2018-03-31T23:48:55.370Z,90.50
2018-03-31T23:50:57.502Z,90.50
2018-03-31T23:52:59.601Z,90.70
2018-03-31T23:55:01.685Z,90.80
2018-03-31T23:57:03.808Z,91.20
2018-03-31T23:59:05.909Z,90.20
